sensor_id;sensor_type;location;lat;lon;timestamp;pressure;altitude;pressure_sealevel;temperature;humidity
44926;BME280;30662;51.210;7.656;2022-12-01T00:00:58;149926.06;;;4.47;100.00
44926;BME280;30662;51.210;7.656;2022-12-01T00:03:25;149919.78;;;4.44;100.00
44926;BME280;30662;51.210;7.656;2022-12-01T00:06:03;149912.19;;;4.41;100.00
44926;BME280;30662;51.210;7.656;2022-12-01T00:08:30;149922.31;;;4.45;100.00
44926;BME280;30662;51.210;7.656;2022-12-01T00:11:06;149908.44;;;4.39;100.00
44926;BME280;30662;51.210;7.656;2022-12-01T00:13:33;149909.69;;;4.40;100.00
44926;BME280;30662;51.210;7.656;2022-12-01T00:16:13;149895.81;;;4.34;100.00
44926;BME280;30662;51.210;7.656;2022-12-01T00:18:39;149874.41;;;4.26;100.00
44926;BME280;30662;51.210;7.656;2022-12-01T00:21:12;149883.25;;;4.29;100.00
44926;BME280;30662;51.210;7.656;2022-12-01T00:23:44;149898.38;;;4.35;100.00
44926;BME280;30662;51.210;7.656;2022-12-01T00:26:12;149837.88;;;4.11;100.00
44926;BME280;30662;51.210;7.656;2022-12-01T00:28:38;149844.22;;;4.13;100.00
44926;BME280;30662;51.210;7.656;2022-12-01T00:31:11;149851.75;;;4.17;100.00
44926;BME280;30662;51.210;7.656;2022-12-01T00:33:38;149860.59;;;4.20;100.00
44926;BME280;30662;51.210;7.656;2022-12-01T00:36:04;149869.38;;;4.24;100.00
44926;BME280;30662;51.210;7.656;2022-12-01T00:38:31;149861.84;;;4.21;100.00
44926;BME280;30662;51.210;7.656;2022-12-01T00:40:57;149855.50;;;4.18;100.00
44926;BME280;30662;51.210;7.656;2022-12-01T00:43:23;149869.38;;;4.24;100.00
44926;BME280;30662;51.210;7.656;2022-12-01T00:45:50;149839.13;;;4.11;100.00
44926;BME280;30662;51.210;7.656;2022-12-01T00:48:16;149836.63;;;4.10;100.00
44926;BME280;30662;51.210;7.656;2022-12-01T00:50:43;149846.72;;;4.14;100.00
44926;BME280;30662;51.210;7.656;2022-12-01T00:53:09;149856.75;;;4.19;100.00
44926;BME280;30662;51.210;7.656;2022-12-01T00:55:35;149847.97;;;4.15;100.00
44926;BME280;30662;51.210;7.656;2022-12-01T00:58:01;149860.59;;;4.20;100.00
44926;BME280;30662;51.210;7.656;2022-12-01T01:00:26;149873.16;;;4.25;100.00
44926;BME280;30662;51.210;7.656;2022-12-01T01:02:52;149865.63;;;4.22;100.00
44926;BME280;30662;51.210;7.656;2022-12-01T01:05:19;149858.03;;;4.19;100.00
44926;BME280;30662;51.210;7.656;2022-12-01T01:07:45;149873.16;;;4.25;100.00
44926;BME280;30662;51.210;7.656;2022-12-01T01:10:11;149858.03;;;4.19;100.00
44926;BME280;30662;51.210;7.656;2022-12-01T01:12:36;149854.25;;;4.18;100.00
44926;BME280;30662;51.210;7.656;2022-12-01T01:15:04;149863.09;;;4.21;100.00
44926;BME280;30662;51.210;7.656;2022-12-01T01:17:31;149863.09;;;4.21;100.00
44926;BME280;30662;51.210;7.656;2022-12-01T01:19:57;149854.25;;;4.18;100.00
44926;BME280;30662;51.210;7.656;2022-12-01T01:22:23;149865.63;;;4.22;100.00
44926;BME280;30662;51.210;7.656;2022-12-01T01:24:49;149880.75;;;4.28;100.00
44926;BME280;30662;51.210;7.656;2022-12-01T01:27:15;149864.34;;;4.22;100.00
44926;BME280;30662;51.210;7.656;2022-12-01T01:29:41;149870.63;;;4.24;100.00
44926;BME280;30662;51.210;7.656;2022-12-01T01:32:07;149874.41;;;4.26;100.00
44926;BME280;30662;51.210;7.656;2022-12-01T01:34:33;149889.53;;;4.32;100.00
44926;BME280;30662;51.210;7.656;2022-12-01T01:36:59;149858.03;;;4.19;100.00
44926;BME280;30662;51.210;7.656;2022-12-01T01:39:25;149876.91;;;4.27;100.00
44926;BME280;30662;51.210;7.656;2022-12-01T01:41:51;149861.84;;;4.21;100.00
44926;BME280;30662;51.210;7.656;2022-12-01T01:47:17;149847.97;;;4.15;100.00
44926;BME280;30662;51.210;7.656;2022-12-01T01:49:45;149844.22;;;4.13;100.00
44926;BME280;30662;51.210;7.656;2022-12-01T01:52:12;149835.34;;;4.10;100.00
44926;BME280;30662;51.210;7.656;2022-12-01T01:54:43;149845.47;;;4.14;100.00
44926;BME280;30662;51.210;7.656;2022-12-01T01:57:14;149845.47;;;4.14;100.00
44926;BME280;30662;51.210;7.656;2022-12-01T01:59:47;149859.28;;;4.20;100.00
44926;BME280;30662;51.210;7.656;2022-12-01T02:02:16;149878.19;;;4.27;100.00
44926;BME280;30662;51.210;7.656;2022-12-01T02:04:47;149836.63;;;4.10;100.00
44926;BME280;30662;51.210;7.656;2022-12-01T02:07:17;149863.09;;;4.21;100.00
44926;BME280;30662;51.210;7.656;2022-12-01T02:09:43;149837.88;;;4.11;100.00
44926;BME280;30662;51.210;7.656;2022-12-01T02:18:46;149884.50;;;4.30;100.00
44926;BME280;30662;51.210;7.656;2022-12-01T02:27:03;149870.63;;;4.24;100.00
44926;BME280;30662;51.210;7.656;2022-12-01T02:35:12;149836.63;;;4.10;100.00
44926;BME280;30662;51.210;7.656;2022-12-01T02:38:02;149853.00;;;4.17;100.00
44926;BME280;30662;51.210;7.656;2022-12-01T02:43:03;149868.13;;;4.23;100.00
44926;BME280;30662;51.210;7.656;2022-12-01T02:45:46;149856.75;;;4.19;100.00
44926;BME280;30662;51.210;7.656;2022-12-01T02:48:23;149869.38;;;4.24;100.00
44926;BME280;30662;51.210;7.656;2022-12-01T02:50:52;149882.00;;;4.29;100.00
44926;BME280;30662;51.210;7.656;2022-12-01T02:53:20;149889.53;;;4.32;100.00
44926;BME280;30662;51.210;7.656;2022-12-01T02:55:54;149854.25;;;4.18;100.00
44926;BME280;30662;51.210;7.656;2022-12-01T02:58:22;149837.88;;;4.11;100.00
44926;BME280;30662;51.210;7.656;2022-12-01T03:17:45;149831.59;;;4.08;100.00
44926;BME280;30662;51.210;7.656;2022-12-01T03:20:17;149806.38;;;3.98;100.00
44926;BME280;30662;51.210;7.656;2022-12-01T03:22:54;149810.19;;;4.00;100.00
44926;BME280;30662;51.210;7.656;2022-12-01T03:25:22;149808.94;;;3.99;100.00
44926;BME280;30662;51.210;7.656;2022-12-01T03:27:52;149788.78;;;3.91;100.00
44926;BME280;30662;51.210;7.656;2022-12-01T03:30:42;149801.34;;;3.96;100.00
44926;BME280;30662;51.210;7.656;2022-12-01T03:33:16;149813.97;;;4.01;100.00
44926;BME280;30662;51.210;7.656;2022-12-01T03:36:09;149811.44;;;4.00;100.00
44926;BME280;30662;51.210;7.656;2022-12-01T03:38:43;149834.09;;;4.09;100.00
44926;BME280;30662;51.210;7.656;2022-12-01T03:41:15;149834.09;;;4.09;100.00
44926;BME280;30662;51.210;7.656;2022-12-01T03:43:48;149840.38;;;4.12;100.00
44926;BME280;30662;51.210;7.656;2022-12-01T03:48:45;149839.13;;;4.11;100.00
44926;BME280;30662;51.210;7.656;2022-12-01T03:51:20;149808.94;;;3.99;100.00
44926;BME280;30662;51.210;7.656;2022-12-01T03:53:56;149787.47;;;3.91;100.00
44926;BME280;30662;51.210;7.656;2022-12-01T03:56:28;149797.56;;;3.95;100.00
44926;BME280;30662;51.210;7.656;2022-12-01T03:58:56;149807.69;;;3.99;100.00
44926;BME280;30662;51.210;7.656;2022-12-01T04:01:23;149830.34;;;4.08;100.00
44926;BME280;30662;51.210;7.656;2022-12-01T04:03:51;149824.00;;;4.05;100.00
44926;BME280;30662;51.210;7.656;2022-12-01T04:06:17;149817.72;;;4.03;100.00
44926;BME280;30662;51.210;7.656;2022-12-01T04:08:42;149806.38;;;3.98;100.00
44926;BME280;30662;51.210;7.656;2022-12-01T04:11:08;149830.34;;;4.08;100.00
44926;BME280;30662;51.210;7.656;2022-12-01T04:13:58;149818.97;;;4.03;100.00
44926;BME280;30662;51.210;7.656;2022-12-01T04:16:24;149834.09;;;4.09;100.00
44926;BME280;30662;51.210;7.656;2022-12-01T04:18:50;149822.75;;;4.05;100.00
44926;BME280;30662;51.210;7.656;2022-12-01T04:21:16;149825.31;;;4.06;100.00
44926;BME280;30662;51.210;7.656;2022-12-01T04:23:42;149812.69;;;4.01;100.00
44926;BME280;30662;51.210;7.656;2022-12-01T04:26:27;149801.34;;;3.96;100.00
44926;BME280;30662;51.210;7.656;2022-12-01T04:28:54;149818.97;;;4.03;100.00
44926;BME280;30662;51.210;7.656;2022-12-01T04:31:19;149803.84;;;3.97;100.00
44926;BME280;30662;51.210;7.656;2022-12-01T04:33:46;149808.94;;;3.99;100.00
44926;BME280;30662;51.210;7.656;2022-12-01T04:36:12;149808.94;;;3.99;100.00
44926;BME280;30662;51.210;7.656;2022-12-01T04:38:37;149806.38;;;3.98;100.00
44926;BME280;30662;51.210;7.656;2022-12-01T04:41:11;149787.47;;;3.91;100.00
44926;BME280;30662;51.210;7.656;2022-12-01T04:43:38;149802.59;;;3.97;100.00
44926;BME280;30662;51.210;7.656;2022-12-01T04:46:05;149795.06;;;3.94;100.00
44926;BME280;30662;51.210;7.656;2022-12-01T04:48:33;149805.13;;;3.98;100.00
44926;BME280;30662;51.210;7.656;2022-12-01T04:51:01;149782.44;;;3.88;100.00
44926;BME280;30662;51.210;7.656;2022-12-01T04:53:28;149778.69;;;3.87;100.00
44926;BME280;30662;51.210;7.656;2022-12-01T04:55:54;149801.34;;;3.96;100.00
44926;BME280;30662;51.210;7.656;2022-12-01T04:58:21;149793.81;;;3.93;100.00
44926;BME280;30662;51.210;7.656;2022-12-01T05:00:47;149784.97;;;3.90;100.00
44926;BME280;30662;51.210;7.656;2022-12-01T05:03:13;149786.22;;;3.90;100.00
44926;BME280;30662;51.210;7.656;2022-12-01T05:05:40;149806.38;;;3.98;100.00
44926;BME280;30662;51.210;7.656;2022-12-01T05:08:06;149800.09;;;3.96;100.00
44926;BME280;30662;51.210;7.656;2022-12-01T05:10:37;149781.19;;;3.88;100.00
44926;BME280;30662;51.210;7.656;2022-12-01T05:13:04;149787.47;;;3.91;100.00
44926;BME280;30662;51.210;7.656;2022-12-01T05:15:30;149748.44;;;3.75;100.00
44926;BME280;30662;51.210;7.656;2022-12-01T05:17:57;149729.56;;;3.67;100.00
44926;BME280;30662;51.210;7.656;2022-12-01T05:20:24;149718.25;;;3.63;100.00
44926;BME280;30662;51.210;7.656;2022-12-01T05:23:09;149699.38;;;3.55;100.00
44926;BME280;30662;51.210;7.656;2022-12-01T05:25:41;149727.03;;;3.66;100.00
44926;BME280;30662;51.210;7.656;2022-12-01T05:28:07;149710.66;;;3.59;100.00
44926;BME280;30662;51.210;7.656;2022-12-01T05:30:33;149718.25;;;3.63;100.00
44926;BME280;30662;51.210;7.656;2022-12-01T05:32:59;149703.13;;;3.56;100.00
44926;BME280;30662;51.210;7.656;2022-12-01T05:35:26;149703.13;;;3.56;100.00
44926;BME280;30662;51.210;7.656;2022-12-01T05:37:52;149714.44;;;3.61;100.00
44926;BME280;30662;51.210;7.656;2022-12-01T05:40:17;149684.25;;;3.49;100.00
44926;BME280;30662;51.210;7.656;2022-12-01T05:42:43;149680.44;;;3.47;100.00
44926;BME280;30662;51.210;7.656;2022-12-01T05:45:09;149714.44;;;3.61;100.00
44926;BME280;30662;51.210;7.656;2022-12-01T05:47:35;149705.66;;;3.57;100.00
44926;BME280;30662;51.210;7.656;2022-12-01T05:50:01;149715.69;;;3.62;100.00
44926;BME280;30662;51.210;7.656;2022-12-01T05:52:34;149701.88;;;3.56;100.00
44926;BME280;30662;51.210;7.656;2022-12-01T05:55:04;149696.81;;;3.54;100.00
44926;BME280;30662;51.210;7.656;2022-12-01T05:57:31;149700.63;;;3.55;100.00
44926;BME280;30662;51.210;7.656;2022-12-01T05:59:57;149685.50;;;3.49;100.00
44926;BME280;30662;51.210;7.656;2022-12-01T06:02:24;149703.13;;;3.56;100.00
44926;BME280;30662;51.210;7.656;2022-12-01T06:04:52;149738.41;;;3.71;100.00
44926;BME280;30662;51.210;7.656;2022-12-01T06:07:19;149698.06;;;3.54;100.00
44926;BME280;30662;51.210;7.656;2022-12-01T06:09:45;149642.66;;;3.32;100.00
44926;BME280;30662;51.210;7.656;2022-12-01T06:12:11;149666.63;;;3.42;100.00
44926;BME280;30662;51.210;7.656;2022-12-01T06:14:37;149666.63;;;3.42;100.00
44926;BME280;30662;51.210;7.656;2022-12-01T06:17:03;149672.91;;;3.44;100.00
44926;BME280;30662;51.210;7.656;2022-12-01T06:19:29;149698.06;;;3.54;100.00
44926;BME280;30662;51.210;7.656;2022-12-01T06:21:56;149706.91;;;3.58;100.00
44926;BME280;30662;51.210;7.656;2022-12-01T06:24:22;149703.13;;;3.56;100.00
44926;BME280;30662;51.210;7.656;2022-12-01T06:26:48;149722.03;;;3.64;100.00
44926;BME280;30662;51.210;7.656;2022-12-01T06:29:14;149676.66;;;3.46;100.00
44926;BME280;30662;51.210;7.656;2022-12-01T06:31:40;149705.66;;;3.57;100.00
44926;BME280;30662;51.210;7.656;2022-12-01T06:34:06;149694.28;;;3.53;100.00
44926;BME280;30662;51.210;7.656;2022-12-01T06:36:33;149708.16;;;3.58;100.00
44926;BME280;30662;51.210;7.656;2022-12-01T06:38:59;149710.66;;;3.59;100.00
44926;BME280;30662;51.210;7.656;2022-12-01T06:41:25;149686.75;;;3.50;100.00
44926;BME280;30662;51.210;7.656;2022-12-01T06:43:51;149679.19;;;3.47;100.00
44926;BME280;30662;51.210;7.656;2022-12-01T06:46:16;149674.16;;;3.45;100.00
44926;BME280;30662;51.210;7.656;2022-12-01T06:48:43;149651.50;;;3.36;100.00
44926;BME280;30662;51.210;7.656;2022-12-01T06:51:09;149646.47;;;3.34;100.00
44926;BME280;30662;51.210;7.656;2022-12-01T06:53:36;149679.19;;;3.47;100.00
44926;BME280;30662;51.210;7.656;2022-12-01T06:56:03;149700.63;;;3.55;100.00
44926;BME280;30662;51.210;7.656;2022-12-01T06:58:30;149684.25;;;3.49;100.00
44926;BME280;30662;51.210;7.656;2022-12-01T07:00:57;149657.78;;;3.38;100.00
44926;BME280;30662;51.210;7.656;2022-12-01T07:03:23;149674.16;;;3.45;100.00
44926;BME280;30662;51.210;7.656;2022-12-01T07:05:57;149679.19;;;3.47;100.00
44926;BME280;30662;51.210;7.656;2022-12-01T07:08:24;149667.88;;;3.42;100.00
44926;BME280;30662;51.210;7.656;2022-12-01T07:11:01;149657.78;;;3.38;100.00
44926;BME280;30662;51.210;7.656;2022-12-01T07:13:27;149680.44;;;3.47;100.00
44926;BME280;30662;51.210;7.656;2022-12-01T07:15:59;149646.47;;;3.34;100.00
44926;BME280;30662;51.210;7.656;2022-12-01T07:18:25;149659.03;;;3.39;100.00
44926;BME280;30662;51.210;7.656;2022-12-01T07:20:50;149662.81;;;3.40;100.00
44926;BME280;30662;51.210;7.656;2022-12-01T07:23:16;149677.94;;;3.46;100.00
44926;BME280;30662;51.210;7.656;2022-12-01T07:25:42;149670.38;;;3.43;100.00
44926;BME280;30662;51.210;7.656;2022-12-01T07:28:08;149675.41;;;3.45;100.00
44926;BME280;30662;51.210;7.656;2022-12-01T07:30:34;149669.13;;;3.43;100.00
44926;BME280;30662;51.210;7.656;2022-12-01T07:33:00;149656.53;;;3.38;100.00
44926;BME280;30662;51.210;7.656;2022-12-01T07:35:26;149642.66;;;3.32;100.00
44926;BME280;30662;51.210;7.656;2022-12-01T07:37:55;149632.63;;;3.28;100.00
44926;BME280;30662;51.210;7.656;2022-12-01T07:40:21;149601.13;;;3.15;100.00
44926;BME280;30662;51.210;7.656;2022-12-01T07:42:47;149622.53;;;3.24;100.00
44926;BME280;30662;51.210;7.656;2022-12-01T07:45:13;149626.31;;;3.25;100.00
44926;BME280;30662;51.210;7.656;2022-12-01T07:47:39;149606.16;;;3.17;100.00
44926;BME280;30662;51.210;7.656;2022-12-01T07:50:06;149641.41;;;3.31;100.00
44926;BME280;30662;51.210;7.656;2022-12-01T07:52:32;149630.13;;;3.27;100.00
44926;BME280;30662;51.210;7.656;2022-12-01T07:54:58;149609.97;;;3.19;100.00
44926;BME280;30662;51.210;7.656;2022-12-01T07:57:23;149611.22;;;3.19;100.00
44926;BME280;30662;51.210;7.656;2022-12-01T07:59:49;149611.22;;;3.19;100.00
44926;BME280;30662;51.210;7.656;2022-12-01T08:02:17;149640.16;;;3.31;100.00
44926;BME280;30662;51.210;7.656;2022-12-01T08:04:43;149666.63;;;3.42;100.00
44926;BME280;30662;51.210;7.656;2022-12-01T08:07:09;149611.22;;;3.19;100.00
44926;BME280;30662;51.210;7.656;2022-12-01T08:09:35;149627.59;;;3.26;100.00
44926;BME280;30662;51.210;7.656;2022-12-01T08:12:01;149612.50;;;3.20;100.00
44926;BME280;30662;51.210;7.656;2022-12-01T08:14:26;149594.88;;;3.13;100.00
44926;BME280;30662;51.210;7.656;2022-12-01T08:16:52;149674.16;;;3.45;100.00
44926;BME280;30662;51.210;7.656;2022-12-01T08:19:18;149637.66;;;3.30;100.00
44926;BME280;30662;51.210;7.656;2022-12-01T08:21:44;149627.59;;;3.26;100.00
44926;BME280;30662;51.210;7.656;2022-12-01T08:24:10;149599.88;;;3.15;100.00
44926;BME280;30662;51.210;7.656;2022-12-01T08:26:36;149606.16;;;3.17;100.00
44926;BME280;30662;51.210;7.656;2022-12-01T08:29:02;149617.50;;;3.22;100.00
44926;BME280;30662;51.210;7.656;2022-12-01T08:31:31;149617.50;;;3.22;100.00
44926;BME280;30662;51.210;7.656;2022-12-01T08:33:58;149598.63;;;3.14;100.00
44926;BME280;30662;51.210;7.656;2022-12-01T08:36:24;149604.91;;;3.17;100.00
44926;BME280;30662;51.210;7.656;2022-12-01T08:38:52;149637.66;;;3.30;100.00
44926;BME280;30662;51.210;7.656;2022-12-01T08:41:19;149630.13;;;3.27;100.00
44926;BME280;30662;51.210;7.656;2022-12-01T08:43:45;149657.78;;;3.38;100.00
44926;BME280;30662;51.210;7.656;2022-12-01T08:46:31;149628.84;;;3.26;100.00
44926;BME280;30662;51.210;7.656;2022-12-01T08:48:58;149615.00;;;3.21;100.00
44926;BME280;30662;51.210;7.656;2022-12-01T08:51:25;149636.38;;;3.29;100.00
44926;BME280;30662;51.210;7.656;2022-12-01T08:53:51;149646.47;;;3.34;100.00
44926;BME280;30662;51.210;7.656;2022-12-01T08:56:21;149657.78;;;3.38;100.00
44926;BME280;30662;51.210;7.656;2022-12-01T08:58:47;149661.56;;;3.40;100.00
44926;BME280;30662;51.210;7.656;2022-12-01T09:01:15;149666.63;;;3.42;100.00
44926;BME280;30662;51.210;7.656;2022-12-01T09:03:42;149662.81;;;3.40;100.00
44926;BME280;30662;51.210;7.656;2022-12-01T09:06:12;149618.75;;;3.22;100.00
44926;BME280;30662;51.210;7.656;2022-12-01T09:08:38;149626.31;;;3.25;100.00
44926;BME280;30662;51.210;7.656;2022-12-01T09:11:14;149618.75;;;3.22;100.00
44926;BME280;30662;51.210;7.656;2022-12-01T09:13:41;149615.00;;;3.21;100.00
44926;BME280;30662;51.210;7.656;2022-12-01T09:16:11;149615.00;;;3.21;100.00
44926;BME280;30662;51.210;7.656;2022-12-01T09:18:38;149623.78;;;3.24;100.00
44926;BME280;30662;51.210;7.656;2022-12-01T09:21:12;149641.41;;;3.31;100.00
44926;BME280;30662;51.210;7.656;2022-12-01T09:23:38;149604.91;;;3.17;100.00
44926;BME280;30662;51.210;7.656;2022-12-01T09:26:05;149609.97;;;3.19;100.00
44926;BME280;30662;51.210;7.656;2022-12-01T09:28:38;149636.38;;;3.29;100.00
44926;BME280;30662;51.210;7.656;2022-12-01T09:31:07;149647.75;;;3.34;100.00
44926;BME280;30662;51.210;7.656;2022-12-01T09:33:33;149632.63;;;3.28;100.00
44926;BME280;30662;51.210;7.656;2022-12-01T09:36:01;149660.28;;;3.39;100.00
44926;BME280;30662;51.210;7.656;2022-12-01T09:38:28;149638.91;;;3.30;100.00
44926;BME280;30662;51.210;7.656;2022-12-01T09:40:55;149662.81;;;3.40;100.00
44926;BME280;30662;51.210;7.656;2022-12-01T09:43:26;149642.66;;;3.32;100.00
44926;BME280;30662;51.210;7.656;2022-12-01T09:46:00;149674.16;;;3.45;100.00
44926;BME280;30662;51.210;7.656;2022-12-01T09:48:35;149671.66;;;3.44;100.00
44926;BME280;30662;51.210;7.656;2022-12-01T09:51:14;149695.56;;;3.53;100.00
44926;BME280;30662;51.210;7.656;2022-12-01T09:53:42;149676.66;;;3.46;100.00
44926;BME280;30662;51.210;7.656;2022-12-01T09:56:39;149656.53;;;3.38;100.00
44926;BME280;30662;51.210;7.656;2022-12-01T09:59:14;149649.00;;;3.35;100.00
44926;BME280;30662;51.210;7.656;2022-12-01T10:01:44;149679.19;;;3.47;100.00
44926;BME280;30662;51.210;7.656;2022-12-01T10:04:28;149649.00;;;3.35;100.00
44926;BME280;30662;51.210;7.656;2022-12-01T10:07:02;149641.41;;;3.31;100.00
44926;BME280;30662;51.210;7.656;2022-12-01T10:09:50;149691.78;;;3.52;100.00
44926;BME280;30662;51.210;7.656;2022-12-01T10:12:19;149693.03;;;3.52;100.00
44926;BME280;30662;51.210;7.656;2022-12-01T10:14:49;149688.00;;;3.50;100.00
44926;BME280;30662;51.210;7.656;2022-12-01T10:17:30;149640.16;;;3.31;100.00
44926;BME280;30662;51.210;7.656;2022-12-01T10:20:05;149654.03;;;3.37;100.00
44926;BME280;30662;51.210;7.656;2022-12-01T10:25:24;149677.94;;;3.46;100.00
44926;BME280;30662;51.210;7.656;2022-12-01T10:28:05;149710.66;;;3.59;100.00
44926;BME280;30662;51.210;7.656;2022-12-01T10:30:39;149685.50;;;3.49;100.00
44926;BME280;30662;51.210;7.656;2022-12-01T10:33:22;149645.19;;;3.33;100.00
44926;BME280;30662;51.210;7.656;2022-12-01T10:35:49;149660.28;;;3.39;100.00
44926;BME280;30662;51.210;7.656;2022-12-01T10:38:25;149674.16;;;3.45;100.00
44926;BME280;30662;51.210;7.656;2022-12-01T10:40:55;149656.53;;;3.38;100.00
44926;BME280;30662;51.210;7.656;2022-12-01T10:43:36;149683.00;;;3.48;100.00
44926;BME280;30662;51.210;7.656;2022-12-01T10:46:23;149684.25;;;3.49;100.00
44926;BME280;30662;51.210;7.656;2022-12-01T10:48:55;149681.75;;;3.48;100.00
44926;BME280;30662;51.210;7.656;2022-12-01T10:51:22;149723.28;;;3.65;100.00
44926;BME280;30662;51.210;7.656;2022-12-01T10:53:49;149716.94;;;3.62;100.00
44926;BME280;30662;51.210;7.656;2022-12-01T10:56:17;149711.94;;;3.60;100.00
44926;BME280;30662;51.210;7.656;2022-12-01T10:58:47;149722.03;;;3.64;100.00
44926;BME280;30662;51.210;7.656;2022-12-01T11:01:22;149737.13;;;3.70;100.00
44926;BME280;30662;51.210;7.656;2022-12-01T11:06:48;149710.66;;;3.59;100.00
44926;BME280;30662;51.210;7.656;2022-12-01T11:09:19;149675.41;;;3.45;100.00
44926;BME280;30662;51.210;7.656;2022-12-01T11:11:56;149683.00;;;3.48;100.00
44926;BME280;30662;51.210;7.656;2022-12-01T11:14:40;149694.28;;;3.53;100.00
44926;BME280;30662;51.210;7.656;2022-12-01T11:17:15;149685.50;;;3.49;100.00
44926;BME280;30662;51.210;7.656;2022-12-01T11:19:41;149681.75;;;3.48;100.00
44926;BME280;30662;51.210;7.656;2022-12-01T11:22:21;149688.00;;;3.50;100.00
44926;BME280;30662;51.210;7.656;2022-12-01T11:27:22;149728.31;;;3.67;100.00
44926;BME280;30662;51.210;7.656;2022-12-01T11:29:51;149713.19;;;3.60;100.00
44926;BME280;30662;51.210;7.656;2022-12-01T11:32:29;149718.25;;;3.63;100.00
44926;BME280;30662;51.210;7.656;2022-12-01T11:34:59;149752.22;;;3.76;100.00
44926;BME280;30662;51.210;7.656;2022-12-01T11:37:37;149766.06;;;3.82;100.00
44926;BME280;30662;51.210;7.656;2022-12-01T11:40:23;149774.91;;;3.85;100.00
44926;BME280;30662;51.210;7.656;2022-12-01T11:42:52;149781.19;;;3.88;100.00
44926;BME280;30662;51.210;7.656;2022-12-01T11:45:26;149788.78;;;3.91;100.00
44926;BME280;30662;51.210;7.656;2022-12-01T11:50:41;149709.41;;;3.59;100.00
44926;BME280;30662;51.210;7.656;2022-12-01T11:53:32;149701.88;;;3.56;100.00
44926;BME280;30662;51.210;7.656;2022-12-01T11:58:42;149694.28;;;3.53;100.00
44926;BME280;30662;51.210;7.656;2022-12-01T12:01:21;149740.91;;;3.72;100.00
44926;BME280;30662;51.210;7.656;2022-12-01T12:04:43;149708.16;;;3.58;100.00
44926;BME280;30662;51.210;7.656;2022-12-01T12:16:01;149733.31;;;3.69;100.00
44926;BME280;30662;51.210;7.656;2022-12-01T12:18:39;149752.22;;;3.76;100.00
44926;BME280;30662;51.210;7.656;2022-12-01T12:21:33;149745.94;;;3.74;100.00
44926;BME280;30662;51.210;7.656;2022-12-01T12:37:29;149739.66;;;3.71;100.00
44926;BME280;30662;51.210;7.656;2022-12-01T12:43:24;149713.19;;;3.60;100.00
44926;BME280;30662;51.210;7.656;2022-12-01T12:46:10;149718.25;;;3.63;100.00
44926;BME280;30662;51.210;7.656;2022-12-01T12:48:47;149716.94;;;3.62;100.00
44926;BME280;30662;51.210;7.656;2022-12-01T12:51:46;149750.97;;;3.76;100.00
44926;BME280;30662;51.210;7.656;2022-12-01T12:54:24;149777.44;;;3.86;100.00
44926;BME280;30662;51.210;7.656;2022-12-01T12:56:59;149766.06;;;3.82;100.00
44926;BME280;30662;51.210;7.656;2022-12-01T12:59:37;149774.91;;;3.85;100.00
44926;BME280;30662;51.210;7.656;2022-12-01T13:02:12;149790.03;;;3.92;100.00
44926;BME280;30662;51.210;7.656;2022-12-01T13:05:01;149718.25;;;3.63;100.00
44926;BME280;30662;51.210;7.656;2022-12-01T13:13:48;149725.78;;;3.66;100.00
44926;BME280;30662;51.210;7.656;2022-12-01T13:16:24;149723.28;;;3.65;100.00
44926;BME280;30662;51.210;7.656;2022-12-01T13:18:55;149670.38;;;3.43;100.00
44926;BME280;30662;51.210;7.656;2022-12-01T13:21:35;149680.44;;;3.47;100.00
44926;BME280;30662;51.210;7.656;2022-12-01T13:24:02;149698.06;;;3.54;100.00
44926;BME280;30662;51.210;7.656;2022-12-01T13:26:30;149703.13;;;3.56;100.00
44926;BME280;30662;51.210;7.656;2022-12-01T13:29:00;149729.56;;;3.67;100.00
44926;BME280;30662;51.210;7.656;2022-12-01T13:31:40;149709.41;;;3.59;100.00
44926;BME280;30662;51.210;7.656;2022-12-01T13:34:38;149688.00;;;3.50;100.00
44926;BME280;30662;51.210;7.656;2022-12-01T13:37:03;149664.09;;;3.41;100.00
44926;BME280;30662;51.210;7.656;2022-12-01T13:39:36;149672.91;;;3.44;100.00
44926;BME280;30662;51.210;7.656;2022-12-01T13:42:19;149670.38;;;3.43;100.00
44926;BME280;30662;51.210;7.656;2022-12-01T13:49:47;149674.16;;;3.45;100.00
44926;BME280;30662;51.210;7.656;2022-12-01T13:57:27;149698.06;;;3.54;100.00
44926;BME280;30662;51.210;7.656;2022-12-01T14:02:24;149699.38;;;3.55;100.00
44926;BME280;30662;51.210;7.656;2022-12-01T14:04:50;149665.38;;;3.41;100.00
44926;BME280;30662;51.210;7.656;2022-12-01T14:07:25;149662.81;;;3.40;100.00
44926;BME280;30662;51.210;7.656;2022-12-01T14:09:54;149652.75;;;3.36;100.00
44926;BME280;30662;51.210;7.656;2022-12-01T14:12:25;149646.47;;;3.34;100.00
44926;BME280;30662;51.210;7.656;2022-12-01T14:14:59;149669.13;;;3.43;100.00
44926;BME280;30662;51.210;7.656;2022-12-01T14:17:29;149677.94;;;3.46;100.00
44926;BME280;30662;51.210;7.656;2022-12-01T14:22:40;149641.41;;;3.31;100.00
44926;BME280;30662;51.210;7.656;2022-12-01T14:27:55;149581.00;;;3.07;100.00
44926;BME280;30662;51.210;7.656;2022-12-01T14:38:50;149593.59;;;3.12;100.00
44926;BME280;30662;51.210;7.656;2022-12-01T14:41:38;149558.38;;;2.98;100.00
44926;BME280;30662;51.210;7.656;2022-12-01T14:44:23;149560.88;;;2.99;100.00
44926;BME280;30662;51.210;7.656;2022-12-01T14:46:53;149574.72;;;3.04;100.00
44926;BME280;30662;51.210;7.656;2022-12-01T14:49:23;149533.16;;;2.88;100.00
44926;BME280;30662;51.210;7.656;2022-12-01T14:51:54;149552.03;;;2.95;100.00
44926;BME280;30662;51.210;7.656;2022-12-01T14:54:27;149538.22;;;2.90;100.00
44926;BME280;30662;51.210;7.656;2022-12-01T14:56:56;149544.50;;;2.92;100.00
44926;BME280;30662;51.210;7.656;2022-12-01T14:59:31;149505.50;;;2.76;100.00
44926;BME280;30662;51.210;7.656;2022-12-01T15:02:04;149514.28;;;2.80;100.00